Time;durP1;ratioP1;P1;durP2;ratioP2;P2;SDS_P1;SDS_P2;PMS_P1;PMS_P2;Temp;Humidity;BMP_temperature;BMP_pressure;BME280_temperature;BME280_humidity;BME280_pressure;Samples;Min_cycle;Max_cycle;Signal;HPM_P1;HPM_P2
2023/03/22 00:00:54;;;;;;;8.60;3.13;;;9.30;99.90;;;;;;5075435;28;20502;-37
2023/03/22 00:03:21;;;;;;;7.55;2.58;;;9.20;99.90;;;;;;5081754;28;20194;-37
2023/03/22 00:05:47;;;;;;;8.15;2.90;;;9.20;99.90;;;;;;5071603;28;20116;-37
2023/03/22 00:08:13;;;;;;;8.23;2.33;;;9.20;99.90;;;;;;5077765;28;20055;-36
2023/03/22 00:10:39;;;;;;;5.68;2.25;;;9.20;99.90;;;;;;5078898;28;20055;-36
2023/03/22 00:13:07;;;;;;;8.85;2.30;;;9.20;99.90;;;;;;5076020;28;20083;-36
2023/03/22 00:15:34;;;;;;;7.45;3.00;;;9.20;99.90;;;;;;5085048;28;20443;-42
2023/03/22 00:18:00;;;;;;;5.72;2.00;;;9.20;99.90;;;;;;5077193;28;20056;-36
2023/03/22 00:20:32;;;;;;;8.63;1.67;;;9.20;99.90;;;;;;5082272;28;20575;-36
2023/03/22 00:22:59;;;;;;;8.77;2.30;;;9.20;99.90;;;;;;5081364;28;20071;-36
2023/03/22 00:25:25;;;;;;;9.52;2.17;;;9.20;99.90;;;;;;5078107;28;20497;-36
2023/03/22 00:27:52;;;;;;;8.40;2.95;;;9.30;99.90;;;;;;5078996;28;20052;-35
2023/03/22 00:30:17;;;;;;;6.03;2.53;;;9.30;99.90;;;;;;5085641;28;20048;-41
2023/03/22 00:32:43;;;;;;;6.10;1.75;;;9.30;99.90;;;;;;5079846;28;20040;-37
2023/03/22 00:35:10;;;;;;;4.32;1.55;;;9.30;99.90;;;;;;5079708;28;20136;-37
2023/03/22 00:37:37;;;;;;;7.25;1.83;;;9.20;99.90;;;;;;5081812;28;20116;-37
2023/03/22 00:40:12;;;;;;;6.30;1.70;;;9.30;99.90;;;;;;5081459;28;20074;-37
2023/03/22 00:42:39;;;;;;;4.57;1.58;;;9.30;99.90;;;;;;5084921;28;20509;-37
2023/03/22 00:45:08;;;;;;;5.13;1.42;;;9.30;99.90;;;;;;5084376;28;20051;-37
2023/03/22 00:47:34;;;;;;;5.07;1.60;;;9.30;99.90;;;;;;5081280;28;20082;-36
2023/03/22 00:50:00;;;;;;;6.10;1.50;;;9.30;99.90;;;;;;5061784;28;20481;-37
2023/03/22 00:52:25;;;;;;;10.43;1.48;;;9.30;99.90;;;;;;5079467;28;20050;-37
2023/03/22 00:54:51;;;;;;;4.90;1.13;;;9.30;99.90;;;;;;5074334;28;20054;-35
2023/03/22 00:57:17;;;;;;;5.90;1.63;;;9.30;99.90;;;;;;5079160;28;20673;-35
2023/03/22 00:59:43;;;;;;;4.30;1.15;;;9.30;99.90;;;;;;5084362;28;20131;-36
2023/03/22 01:02:12;;;;;;;4.15;1.13;;;9.30;99.90;;;;;;5075667;28;20066;-37
2023/03/22 01:04:45;;;;;;;4.55;1.08;;;9.30;99.90;;;;;;5082966;28;20139;-44
2023/03/22 01:07:20;;;;;;;9.45;1.20;;;9.30;99.90;;;;;;5081451;28;20052;-35
2023/03/22 01:09:47;;;;;;;6.15;1.10;;;9.30;99.90;;;;;;5073601;28;20082;-36
2023/03/22 01:12:14;;;;;;;4.22;0.88;;;9.40;99.90;;;;;;5076923;28;20052;-35
2023/03/22 01:14:40;;;;;;;6.97;0.80;;;9.40;99.90;;;;;;5077803;28;20040;-36
2023/03/22 01:17:06;;;;;;;4.70;0.98;;;9.40;99.90;;;;;;5076035;28;20047;-35
2023/03/22 01:19:33;;;;;;;6.15;0.75;;;9.40;99.90;;;;;;5075636;28;20056;-35
2023/03/22 01:21:58;;;;;;;6.82;0.90;;;9.40;99.90;;;;;;5078931;28;20089;-40
2023/03/22 01:24:24;;;;;;;3.38;0.60;;;9.50;99.90;;;;;;5073019;28;20044;-37
2023/03/22 01:26:50;;;;;;;2.85;0.75;;;9.50;99.90;;;;;;5075210;28;20133;-36
2023/03/22 01:29:16;;;;;;;5.75;0.65;;;9.50;99.90;;;;;;5081378;28;20074;-35
2023/03/22 01:31:42;;;;;;;4.65;0.95;;;9.50;99.90;;;;;;5078939;28;20052;-35
2023/03/22 01:34:08;;;;;;;4.72;1.00;;;9.50;99.90;;;;;;5077658;28;20040;-35
2023/03/22 01:36:34;;;;;;;6.28;0.93;;;9.50;99.90;;;;;;5080385;28;20082;-36
2023/03/22 01:39:00;;;;;;;4.57;0.70;;;9.50;99.90;;;;;;5079175;28;20135;-36
2023/03/22 01:41:26;;;;;;;3.55;0.55;;;9.50;99.90;;;;;;5079537;28;20446;-36
2023/03/22 01:44:15;;;;;;;3.72;1.00;;;9.50;99.90;;;;;;5081942;28;20044;-36
2023/03/22 01:46:42;;;;;;;7.32;0.80;;;9.50;99.90;;;;;;5080722;28;20105;-35
2023/03/22 01:49:12;;;;;;;3.25;0.90;;;9.50;99.90;;;;;;5078781;28;20040;-35
2023/03/22 01:51:39;;;;;;;5.30;0.63;;;9.50;99.90;;;;;;5084551;28;20051;-36
2023/03/22 01:54:08;;;;;;;5.07;1.23;;;9.40;99.90;;;;;;5082551;28;20043;-37
2023/03/22 01:56:37;;;;;;;6.35;1.02;;;9.40;99.90;;;;;;5082357;28;20187;-36
2023/03/22 01:59:05;;;;;;;8.80;1.33;;;9.40;99.90;;;;;;5080813;28;20054;-36
2023/03/22 02:01:31;;;;;;;7.10;1.05;;;9.40;99.90;;;;;;5076779;28;20412;-36
2023/03/22 02:04:22;;;;;;;8.18;1.08;;;9.50;99.90;;;;;;5083141;28;20477;-37
2023/03/22 02:06:50;;;;;;;10.38;1.52;;;9.40;99.90;;;;;;5081056;28;20071;-37
2023/03/22 02:09:17;;;;;;;3.90;0.95;;;9.40;99.90;;;;;;5081051;28;20047;-37
2023/03/22 02:11:50;;;;;;;6.40;1.33;;;9.40;99.90;;;;;;5077923;28;20045;-37
2023/03/22 02:14:51;;;;;;;8.02;1.27;;;9.40;99.90;;;;;;5075167;28;20486;-37
2023/03/22 02:17:28;;;;;;;6.13;1.38;;;9.40;99.90;;;;;;5036433;28;20502;-37
2023/03/22 02:20:23;;;;;;;4.70;0.90;;;9.40;99.90;;;;;;5076017;28;20048;-37
2023/03/22 02:23:18;;;;;;;4.20;1.17;;;9.40;99.90;;;;;;5067180;28;20075;-36
2023/03/22 02:26:00;;;;;;;6.65;1.38;;;9.40;99.90;;;;;;5056135;28;20052;-37
2023/03/22 02:28:59;;;;;;;8.10;1.43;;;9.40;99.90;;;;;;5077639;28;20047;-38
2023/03/22 02:31:41;;;;;;;4.22;0.93;;;9.40;99.90;;;;;;5077171;28;20421;-40
2023/03/22 02:34:31;;;;;;;6.63;0.87;;;9.40;99.90;;;;;;5078401;28;20460;-37
2023/03/22 02:37:27;;;;;;;4.78;0.95;;;9.40;99.90;;;;;;5075015;28;20294;-36
2023/03/22 02:40:07;;;;;;;5.28;1.00;;;9.30;99.90;;;;;;5079173;28;20067;-37
2023/03/22 02:42:46;;;;;;;2.72;0.85;;;9.30;99.90;;;;;;5077744;28;20063;-38
2023/03/22 02:45:35;;;;;;;5.50;1.00;;;9.30;99.90;;;;;;5076230;28;20137;-36
2023/03/22 02:48:21;;;;;;;4.60;0.98;;;9.30;99.90;;;;;;5069156;28;20056;-37
2023/03/22 02:51:01;;;;;;;3.90;1.00;;;9.20;99.90;;;;;;5078965;28;20528;-37
2023/03/22 02:53:51;;;;;;;4.78;1.08;;;9.20;99.90;;;;;;5058075;28;20114;-37
2023/03/22 02:56:43;;;;;;;8.23;1.20;;;9.20;99.90;;;;;;5078768;28;20094;-36
2023/03/22 02:59:10;;;;;;;4.90;1.30;;;9.20;99.90;;;;;;5078190;28;20047;-36
2023/03/22 03:01:40;;;;;;;3.80;1.17;;;9.20;99.90;;;;;;5077726;28;20064;-40
2023/03/22 03:04:11;;;;;;;5.20;1.50;;;9.20;99.90;;;;;;5074024;28;20040;-36
2023/03/22 03:06:45;;;;;;;7.88;1.80;;;9.20;99.90;;;;;;5077225;28;20494;-36
2023/03/22 03:09:16;;;;;;;4.40;1.40;;;9.20;99.90;;;;;;5074840;28;20094;-37
2023/03/22 03:11:49;;;;;;;7.53;2.33;;;9.20;99.90;;;;;;5078962;28;20082;-36
2023/03/22 03:14:28;;;;;;;3.55;1.20;;;9.10;99.90;;;;;;5077469;28;20466;-37
2023/03/22 03:17:17;;;;;;;5.65;1.27;;;9.20;99.90;;;;;;5076087;28;20050;-37
2023/03/22 03:20:08;;;;;;;4.80;1.20;;;9.20;99.90;;;;;;5072779;28;20060;-37
2023/03/22 03:22:43;;;;;;;4.75;1.20;;;9.20;99.90;;;;;;5076757;28;20494;-36
2023/03/22 03:25:37;;;;;;;6.60;1.35;;;9.20;99.90;;;;;;5079617;28;20055;-36
2023/03/22 03:28:16;;;;;;;5.43;1.13;;;9.20;99.90;;;;;;5074130;28;20078;-37
2023/03/22 03:30:56;;;;;;;4.00;1.08;;;9.20;99.90;;;;;;5078539;28;20490;-36
2023/03/22 03:33:26;;;;;;;6.15;1.05;;;9.20;99.90;;;;;;5074895;28;20064;-37
2023/03/22 03:35:59;;;;;;;8.93;1.27;;;9.20;99.90;;;;;;5076852;28;20105;-36
2023/03/22 03:38:27;;;;;;;4.20;1.20;;;9.20;99.90;;;;;;5077909;28;20056;-37
2023/03/22 03:40:59;;;;;;;8.55;1.35;;;9.20;99.90;;;;;;5083713;28;20132;-37
2023/03/22 03:43:26;;;;;;;6.13;1.50;;;9.20;99.90;;;;;;5076838;28;20044;-37
2023/03/22 03:45:54;;;;;;;5.47;1.52;;;9.20;99.90;;;;;;5083973;28;20133;-37
2023/03/22 03:48:26;;;;;;;4.70;1.40;;;9.20;99.90;;;;;;5081845;28;20055;-37
2023/03/22 03:50:55;;;;;;;5.15;0.90;;;9.20;99.90;;;;;;5081382;28;20078;-36
2023/03/22 03:53:20;;;;;;;7.97;1.60;;;9.20;99.90;;;;;;5074115;28;20700;-36
2023/03/22 03:55:46;;;;;;;4.55;1.27;;;9.20;99.90;;;;;;5078968;28;20134;-36
2023/03/22 03:58:12;;;;;;;6.80;1.48;;;9.20;99.90;;;;;;5080662;28;20591;-38
2023/03/22 04:00:38;;;;;;;10.43;1.70;;;9.20;99.90;;;;;;5060168;28;20527;-36
2023/03/22 04:03:05;;;;;;;7.15;1.63;;;9.20;99.90;;;;;;5073457;28;20068;-37
2023/03/22 04:05:31;;;;;;;4.35;1.90;;;9.20;99.90;;;;;;5080728;28;20538;-38
2023/03/22 04:07:56;;;;;;;9.05;1.88;;;9.20;99.90;;;;;;5076700;28;20048;-37
2023/03/22 04:10:22;;;;;;;11.02;2.65;;;9.20;99.90;;;;;;5076652;28;20056;-37
2023/03/22 04:12:48;;;;;;;6.85;2.28;;;9.20;99.90;;;;;;5079123;28;20135;-37
2023/03/22 04:15:13;;;;;;;6.43;2.92;;;9.20;99.90;;;;;;5083351;28;20079;-37
2023/03/22 04:17:40;;;;;;;6.90;2.60;;;9.20;99.90;;;;;;5081319;28;20059;-36
2023/03/22 04:20:09;;;;;;;9.57;2.70;;;9.20;99.90;;;;;;5083136;28;20052;-37
2023/03/22 04:22:37;;;;;;;12.10;2.63;;;9.20;99.90;;;;;;5084642;28;20057;-36
2023/03/22 04:25:11;;;;;;;8.63;3.00;;;9.20;99.90;;;;;;5080574;28;20055;-37
2023/03/22 04:27:39;;;;;;;8.77;3.33;;;9.20;99.90;;;;;;5081199;28;20230;-37
2023/03/22 04:30:09;;;;;;;10.52;3.33;;;9.20;99.90;;;;;;5084035;28;21996;-37
2023/03/22 04:32:35;;;;;;;7.30;3.40;;;9.20;99.90;;;;;;5083416;28;20170;-37
2023/03/22 04:35:01;;;;;;;10.85;3.97;;;9.20;99.90;;;;;;5079756;28;20044;-37
2023/03/22 04:37:26;;;;;;;7.95;3.15;;;9.20;99.90;;;;;;5076819;28;20109;-37
2023/03/22 04:39:53;;;;;;;9.60;4.57;;;9.20;99.90;;;;;;5079846;28;20049;-37
2023/03/22 04:42:19;;;;;;;7.75;3.75;;;9.20;99.90;;;;;;5082448;28;20137;-36
2023/03/22 04:44:45;;;;;;;10.93;3.97;;;9.30;99.90;;;;;;5079918;28;20497;-37
2023/03/22 04:47:11;;;;;;;12.05;4.03;;;9.30;99.90;;;;;;5079971;28;20036;-36
2023/03/22 04:49:36;;;;;;;10.52;4.07;;;9.30;99.90;;;;;;5082349;28;20040;-37
2023/03/22 04:52:02;;;;;;;9.43;4.63;;;9.30;99.90;;;;;;5075928;28;20401;-37
2023/03/22 04:54:28;;;;;;;10.65;4.78;;;9.30;99.90;;;;;;5075663;28;20090;-41
2023/03/22 04:56:54;;;;;;;11.38;4.63;;;9.30;99.90;;;;;;5082479;28;20560;-37
2023/03/22 04:59:19;;;;;;;13.50;4.70;;;9.40;99.90;;;;;;5078740;28;20087;-36
2023/03/22 05:01:50;;;;;;;12.38;4.60;;;9.30;99.90;;;;;;5072169;28;20101;-37
2023/03/22 05:04:17;;;;;;;9.57;4.68;;;9.30;99.90;;;;;;5075406;28;20060;-37
2023/03/22 05:06:43;;;;;;;10.45;4.97;;;9.40;99.90;;;;;;5077410;28;20485;-37
2023/03/22 05:09:10;;;;;;;9.27;4.50;;;9.30;99.90;;;;;;5077849;28;20481;-37
2023/03/22 05:11:36;;;;;;;9.20;4.13;;;9.40;99.90;;;;;;5064661;28;20060;-36
2023/03/22 05:14:03;;;;;;;10.25;5.03;;;9.30;99.90;;;;;;5056028;28;20049;-36
2023/03/22 05:16:29;;;;;;;8.57;4.00;;;9.30;99.90;;;;;;5078152;28;20101;-36
2023/03/22 05:18:54;;;;;;;11.65;4.68;;;9.40;99.90;;;;;;5082391;28;20094;-37
2023/03/22 05:21:27;;;;;;;9.27;4.50;;;9.30;99.90;;;;;;5081154;28;20163;-37
2023/03/22 05:23:54;;;;;;;12.65;4.97;;;9.40;99.90;;;;;;5078204;28;20090;-37
2023/03/22 05:26:23;;;;;;;7.72;3.67;;;9.40;99.90;;;;;;5079534;28;20059;-37
2023/03/22 05:28:50;;;;;;;11.48;4.63;;;9.40;99.90;;;;;;5079296;28;20055;-36
2023/03/22 05:31:16;;;;;;;11.93;5.05;;;9.40;99.90;;;;;;5077851;28;20052;-37
2023/03/22 05:33:42;;;;;;;15.40;4.60;;;9.40;99.90;;;;;;5063418;28;20458;-37
2023/03/22 05:36:10;;;;;;;11.80;5.00;;;9.40;99.90;;;;;;5082428;28;20059;-36
2023/03/22 05:38:36;;;;;;;13.90;4.93;;;9.30;99.90;;;;;;5075664;28;20096;-37
2023/03/22 05:41:02;;;;;;;10.23;3.92;;;9.30;99.90;;;;;;5080832;28;20172;-37
2023/03/22 05:43:27;;;;;;;11.68;5.00;;;9.40;99.90;;;;;;5082981;28;20390;-37
2023/03/22 05:45:53;;;;;;;10.30;4.75;;;9.40;99.90;;;;;;5080888;28;20334;-36
2023/03/22 05:48:19;;;;;;;12.32;4.85;;;9.40;99.90;;;;;;5080851;28;20055;-36
2023/03/22 05:50:45;;;;;;;11.00;5.10;;;9.40;99.90;;;;;;5080974;28;20062;-36
2023/03/22 05:53:10;;;;;;;14.35;5.13;;;9.40;99.90;;;;;;5077976;28;20070;-37
2023/03/22 05:55:36;;;;;;;9.95;4.85;;;9.40;99.90;;;;;;5080202;28;20078;-36
2023/03/22 05:58:03;;;;;;;9.45;4.60;;;9.40;99.90;;;;;;5080555;28;20516;-38
2023/03/22 06:00:30;;;;;;;14.15;5.53;;;9.40;99.90;;;;;;5073249;28;20143;-36
2023/03/22 06:03:02;;;;;;;9.50;4.25;;;9.40;99.90;;;;;;5074238;28;20055;-36
2023/03/22 06:05:30;;;;;;;10.13;4.68;;;9.40;99.90;;;;;;5079302;28;20065;-36
2023/03/22 06:07:56;;;;;;;9.10;4.15;;;9.50;99.90;;;;;;5078677;28;20523;-36
2023/03/22 06:10:23;;;;;;;12.05;4.30;;;9.50;99.90;;;;;;5075960;28;20036;-36
2023/03/22 06:12:49;;;;;;;13.18;4.57;;;9.50;99.90;;;;;;5076313;28;20131;-36
2023/03/22 06:15:15;;;;;;;9.65;4.25;;;9.60;99.90;;;;;;5073502;28;20526;-36
2023/03/22 06:17:41;;;;;;;9.75;4.47;;;9.60;99.90;;;;;;5073752;28;20048;-36
2023/03/22 06:20:10;;;;;;;7.60;2.83;;;9.70;99.90;;;;;;5078178;28;20638;-37
2023/03/22 06:22:38;;;;;;;11.00;4.95;;;9.70;99.90;;;;;;5079515;28;20044;-42
2023/03/22 06:25:05;;;;;;;8.40;4.47;;;9.70;99.90;;;;;;5080920;28;20070;-37
2023/03/22 06:27:31;;;;;;;11.80;5.07;;;9.80;99.90;;;;;;5077643;28;20055;-36
2023/03/22 06:29:57;;;;;;;11.43;5.03;;;9.80;99.90;;;;;;5077160;28;20051;-37
2023/03/22 06:32:23;;;;;;;9.88;4.65;;;9.80;99.90;;;;;;5072283;28;20281;-37
2023/03/22 06:34:49;;;;;;;10.10;4.68;;;9.90;99.90;;;;;;5073343;28;20069;-38
2023/03/22 06:37:15;;;;;;;9.57;4.50;;;10.00;99.90;;;;;;5075991;28;20126;-37
2023/03/22 06:39:41;;;;;;;7.47;4.38;;;10.00;99.90;;;;;;5076846;28;20474;-36
2023/03/22 06:42:07;;;;;;;7.32;3.42;;;10.10;99.90;;;;;;5078406;28;20414;-45
2023/03/22 06:44:33;;;;;;;6.45;3.42;;;10.10;99.90;;;;;;5081298;28;20071;-45
2023/03/22 06:46:59;;;;;;;8.18;4.38;;;10.20;99.90;;;;;;5078013;28;20632;-47
2023/03/22 06:49:25;;;;;;;10.63;4.30;;;10.20;99.90;;;;;;5071549;28;20085;-48
2023/03/22 06:51:51;;;;;;;10.45;4.35;;;10.30;99.90;;;;;;5073756;28;20495;-47
2023/03/22 06:54:17;;;;;;;12.25;4.13;;;10.30;99.90;;;;;;5073993;28;20101;-47
2023/03/22 06:56:42;;;;;;;11.07;3.95;;;10.30;99.90;;;;;;5059091;28;20051;-44
2023/03/22 06:59:08;;;;;;;7.38;3.17;;;10.30;99.90;;;;;;5073661;28;20059;-48
2023/03/22 07:01:34;;;;;;;10.50;4.18;;;10.40;99.90;;;;;;5075046;28;20060;-46
2023/03/22 07:04:00;;;;;;;6.38;2.70;;;10.40;99.90;;;;;;5073477;28;20044;-45
2023/03/22 07:06:25;;;;;;;9.68;4.18;;;10.30;99.90;;;;;;5073697;28;20054;-46
2023/03/22 07:08:51;;;;;;;9.88;3.45;;;10.30;99.90;;;;;;5058462;28;20044;-46
2023/03/22 07:11:16;;;;;;;10.27;3.28;;;10.40;99.90;;;;;;5075930;28;20051;-45
2023/03/22 07:13:43;;;;;;;6.63;3.00;;;10.40;99.90;;;;;;5074473;28;20147;-45
2023/03/22 07:16:09;;;;;;;7.32;3.15;;;10.40;99.90;;;;;;5074506;28;20114;-47
2023/03/22 07:18:35;;;;;;;8.48;2.90;;;10.50;99.90;;;;;;5077039;28;20056;-46
2023/03/22 07:21:01;;;;;;;7.57;3.08;;;10.50;99.90;;;;;;5067411;28;20056;-41
2023/03/22 07:23:27;;;;;;;8.45;2.92;;;10.50;99.90;;;;;;5079605;28;20051;-42
2023/03/22 07:25:54;;;;;;;8.48;3.25;;;10.60;99.90;;;;;;5082854;28;20166;-42
2023/03/22 07:28:21;;;;;;;5.55;2.63;;;10.60;99.90;;;;;;5070948;28;20056;-45
2023/03/22 07:30:46;;;;;;;4.88;2.72;;;10.60;99.90;;;;;;5072320;28;20055;-42
2023/03/22 07:33:12;;;;;;;7.75;3.85;;;10.60;99.90;;;;;;5074706;28;20048;-44
2023/03/22 07:35:38;;;;;;;9.43;2.33;;;10.60;99.90;;;;;;5070516;28;20491;-43
2023/03/22 07:38:05;;;;;;;7.30;2.30;;;10.60;99.90;;;;;;5068813;28;20063;-46
2023/03/22 07:40:31;;;;;;;8.07;2.70;;;10.60;99.90;;;;;;5067211;28;20052;-40
2023/03/22 07:43:00;;;;;;;5.53;2.00;;;10.60;99.90;;;;;;5072374;28;20074;-44
2023/03/22 07:45:25;;;;;;;8.73;2.92;;;10.60;99.90;;;;;;5070873;28;20048;-48
2023/03/22 07:47:51;;;;;;;4.60;2.08;;;10.60;99.90;;;;;;5075039;28;20045;-46
2023/03/22 07:50:18;;;;;;;4.68;2.03;;;10.60;99.90;;;;;;5076803;28;20129;-44
2023/03/22 07:52:44;;;;;;;7.75;2.30;;;10.70;99.90;;;;;;5078132;28;20459;-44
2023/03/22 07:55:11;;;;;;;6.30;1.83;;;10.60;99.90;;;;;;5075178;28;20535;-42
2023/03/22 07:57:37;;;;;;;7.70;2.33;;;10.70;99.90;;;;;;5076279;28;20135;-44
2023/03/22 08:00:06;;;;;;;5.32;1.95;;;10.70;99.90;;;;;;5079319;28;20134;-45
2023/03/22 08:02:32;;;;;;;10.32;2.25;;;10.80;99.90;;;;;;5081055;28;20138;-46
2023/03/22 08:04:57;;;;;;;5.45;2.25;;;10.80;99.90;;;;;;5075916;28;20048;-44
2023/03/22 08:07:26;;;;;;;5.85;2.40;;;10.80;99.90;;;;;;5074182;28;20047;-45
2023/03/22 08:09:52;;;;;;;5.53;2.05;;;10.80;99.90;;;;;;5079458;28;20048;-44
2023/03/22 08:12:18;;;;;;;6.35;2.20;;;10.80;99.90;;;;;;5074434;28;20512;-48
2023/03/22 08:14:49;;;;;;;10.63;2.47;;;10.80;99.90;;;;;;5071785;28;20048;-46
2023/03/22 08:17:16;;;;;;;9.73;2.93;;;10.80;99.90;;;;;;5081725;28;20043;-44
2023/03/22 08:19:42;;;;;;;8.80;2.10;;;10.90;99.90;;;;;;5074859;28;20502;-46
2023/03/22 08:22:08;;;;;;;7.13;2.55;;;10.80;99.90;;;;;;5074518;28;20126;-47
2023/03/22 08:24:34;;;;;;;8.77;2.58;;;10.80;99.90;;;;;;5075360;28;21098;-50
2023/03/22 08:27:00;;;;;;;4.60;1.80;;;10.90;99.90;;;;;;5084620;28;20138;-43
2023/03/22 08:29:26;;;;;;;6.25;2.05;;;11.00;99.90;;;;;;5081709;28;20059;-48
2023/03/22 08:31:52;;;;;;;5.10;2.03;;;11.00;99.90;;;;;;5082308;28;20142;-47
2023/03/22 08:34:19;;;;;;;6.18;2.00;;;11.10;99.90;;;;;;5080997;28;20051;-45
2023/03/22 08:36:45;;;;;;;5.47;1.90;;;11.20;99.90;;;;;;5079068;28;20097;-47
2023/03/22 08:39:10;;;;;;;8.50;1.77;;;11.30;99.90;;;;;;5082211;28;20044;-48
2023/03/22 08:41:37;;;;;;;4.68;2.00;;;11.30;99.90;;;;;;5084210;28;20048;-50
2023/03/22 08:44:03;;;;;;;5.22;1.73;;;11.40;99.90;;;;;;5078826;28;20048;-47
2023/03/22 08:46:28;;;;;;;11.00;2.15;;;11.40;99.90;;;;;;5077338;28;20071;-50
2023/03/22 08:48:54;;;;;;;6.70;1.95;;;11.50;99.90;;;;;;5082117;28;20058;-43
2023/03/22 08:51:21;;;;;;;6.43;2.55;;;11.50;99.90;;;;;;5076632;28;20397;-45
2023/03/22 08:53:48;;;;;;;9.98;2.00;;;11.50;99.90;;;;;;5077400;28;20151;-49
2023/03/22 08:56:15;;;;;;;6.60;1.55;;;11.60;99.90;;;;;;5078605;28;20048;-48
2023/03/22 08:58:45;;;;;;;4.18;1.58;;;11.60;99.90;;;;;;5061292;28;20509;-50
2023/03/22 09:01:15;;;;;;;6.75;1.85;;;11.60;99.90;;;;;;5082047;28;20075;-47
2023/03/22 09:03:41;;;;;;;8.07;2.13;;;11.50;99.90;;;;;;5081125;28;20051;-48
2023/03/22 09:06:08;;;;;;;7.68;2.03;;;11.50;99.90;;;;;;5076504;28;20595;-38
2023/03/22 09:08:34;;;;;;;8.00;2.17;;;11.50;99.90;;;;;;5081241;28;21566;-38
2023/03/22 09:11:00;;;;;;;4.93;1.65;;;11.50;99.90;;;;;;5083192;28;20456;-38
2023/03/22 09:13:25;;;;;;;7.70;2.03;;;11.50;99.90;;;;;;5060984;28;20072;-38
2023/03/22 09:15:51;;;;;;;8.63;1.85;;;11.60;99.90;;;;;;5077635;28;20059;-38
2023/03/22 09:18:17;;;;;;;5.75;1.80;;;11.60;99.90;;;;;;5080847;28;20056;-38
2023/03/22 09:20:44;;;;;;;6.65;1.42;;;11.60;99.90;;;;;;5070985;28;20064;-38
2023/03/22 09:23:11;;;;;;;7.45;1.65;;;11.70;99.90;;;;;;5080217;28;20421;-38
2023/03/22 09:25:37;;;;;;;5.07;1.40;;;11.70;99.90;;;;;;5078539;28;20048;-39
2023/03/22 09:28:03;;;;;;;6.40;1.52;;;11.70;99.90;;;;;;5079286;28;20060;-38
2023/03/22 09:30:29;;;;;;;5.57;1.52;;;11.70;99.90;;;;;;5076749;28;20512;-38
2023/03/22 09:32:55;;;;;;;6.45;1.67;;;11.60;99.90;;;;;;5074430;28;20056;-38
2023/03/22 09:35:21;;;;;;;5.68;1.75;;;11.50;99.90;;;;;;5057591;28;20054;-38
2023/03/22 09:37:48;;;;;;;8.77;2.30;;;11.50;99.90;;;;;;5078207;28;20056;-37
2023/03/22 09:40:14;;;;;;;2.72;1.10;;;11.40;99.90;;;;;;5074983;28;20044;-36
2023/03/22 09:42:47;;;;;;;8.27;1.55;;;11.40;99.90;;;;;;5071517;28;20060;-37
2023/03/22 09:45:15;;;;;;;;;;;11.40;99.90;;;;;;5076778;28;20055;-38
2023/03/22 09:47:45;;;;;;;4.50;1.45;;;11.40;99.90;;;;;;5067972;28;19920;-38
2023/03/22 09:50:17;;;;;;;9.65;1.60;;;11.40;99.90;;;;;;5074172;28;20129;-43
2023/03/22 09:52:43;;;;;;;9.00;1.88;;;11.40;99.90;;;;;;5075630;28;20052;-41
2023/03/22 09:55:27;;;;;;;3.92;1.10;;;11.40;99.90;;;;;;5075399;28;20052;-42
2023/03/22 09:58:31;;;;;;;6.32;1.60;;;11.40;99.90;;;;;;5078552;28;20052;-42
2023/03/22 10:01:18;;;;;;;4.88;1.75;;;11.40;99.90;;;;;;5039459;28;20474;-43
2023/03/22 10:04:03;;;;;;;7.63;1.63;;;11.40;99.90;;;;;;5077494;28;20056;-41
2023/03/22 10:06:29;;;;;;;7.10;1.83;;;11.40;99.90;;;;;;5074816;28;20105;-44
2023/03/22 10:09:04;;;;;;;7.57;1.48;;;11.40;99.90;;;;;;5079048;28;20054;-46
2023/03/22 10:11:54;;;;;;;7.50;2.08;;;11.40;99.90;;;;;;5078695;28;20055;-42
2023/03/22 10:14:45;;;;;;;7.45;1.50;;;11.40;99.90;;;;;;5060791;28;20048;-43
2023/03/22 10:17:25;;;;;;;5.63;1.48;;;11.40;99.90;;;;;;5078922;28;20485;-43
2023/03/22 10:19:56;;;;;;;3.20;1.08;;;11.30;99.90;;;;;;5078529;28;20128;-43
2023/03/22 10:22:28;;;;;;;6.82;1.95;;;11.40;99.90;;;;;;5080248;28;20047;-43
2023/03/22 10:24:55;;;;;;;6.63;1.40;;;11.40;99.90;;;;;;5073022;28;20528;-42
2023/03/22 10:27:22;;;;;;;5.40;1.42;;;11.40;99.90;;;;;;5076846;28;21432;-45
2023/03/22 10:29:51;;;;;;;6.00;1.60;;;11.40;99.90;;;;;;5074208;28;20052;-41
2023/03/22 10:32:21;;;;;;;5.60;1.90;;;11.40;99.90;;;;;;5073164;28;20052;-44
2023/03/22 10:34:48;;;;;;;5.20;1.27;;;11.30;99.90;;;;;;5076739;28;20047;-37
2023/03/22 10:37:22;;;;;;;5.38;1.88;;;11.30;99.90;;;;;;5069307;28;20052;-39
2023/03/22 10:39:51;;;;;;;5.88;1.38;;;11.20;99.90;;;;;;5073495;28;20417;-37
2023/03/22 10:42:22;;;;;;;6.03;1.38;;;11.20;99.90;;;;;;5076325;28;20071;-38
2023/03/22 10:44:54;;;;;;;7.90;1.73;;;11.10;99.90;;;;;;5072606;28;20101;-37
2023/03/22 10:47:30;;;;;;;8.82;3.50;;;11.00;99.90;;;;;;5076382;28;21734;-38
2023/03/22 10:49:59;;;;;;;3.63;1.13;;;11.00;99.90;;;;;;5072024;28;20058;-38
2023/03/22 10:52:50;;;;;;;5.35;1.50;;;10.90;99.90;;;;;;5062207;28;20105;-38
2023/03/22 10:55:16;;;;;;;7.20;1.25;;;10.90;99.90;;;;;;5076516;28;20416;-38
2023/03/22 10:57:50;;;;;;;9.02;2.22;;;10.90;99.90;;;;;;5076086;28;20059;-38
2023/03/22 11:00:16;;;;;;;7.18;2.00;;;10.90;99.90;;;;;;5076927;28;20047;-38
2023/03/22 11:02:50;;;;;;;4.15;1.55;;;10.90;99.90;;;;;;5074975;28;20074;-38
2023/03/22 11:05:26;;;;;;;5.82;1.15;;;10.80;99.90;;;;;;5072064;28;20068;-38
2023/03/22 11:07:53;;;;;;;5.22;1.08;;;10.90;99.90;;;;;;5080729;28;20044;-37
2023/03/22 11:10:26;;;;;;;5.40;1.45;;;10.80;99.90;;;;;;5074995;28;20052;-38
2023/03/22 11:13:21;;;;;;;5.07;1.20;;;10.80;99.90;;;;;;5077274;28;20075;-38
2023/03/22 11:16:00;;;;;;;3.30;0.93;;;10.80;99.90;;;;;;5078710;28;20048;-38
2023/03/22 11:18:31;;;;;;;7.10;1.88;;;10.80;99.90;;;;;;5073222;28;20048;-37
2023/03/22 11:21:06;;;;;;;6.30;1.90;;;10.80;99.90;;;;;;5069109;28;20043;-38
2023/03/22 11:23:33;;;;;;;6.70;1.00;;;10.90;99.90;;;;;;5078344;28;20056;-38
2023/03/22 11:26:10;;;;;;;5.22;1.30;;;10.90;99.90;;;;;;5073234;28;20088;-48
2023/03/22 11:28:48;;;;;;;4.22;1.10;;;10.90;99.90;;;;;;5074886;28;20093;-44
2023/03/22 11:31:16;;;;;;;4.20;1.92;;;10.90;99.90;;;;;;5078395;28;20573;-47
2023/03/22 11:33:59;;;;;;;8.07;1.52;;;10.90;99.90;;;;;;5083232;28;20051;-47
2023/03/22 11:36:27;;;;;;;5.97;0.90;;;10.90;99.90;;;;;;5079087;28;20515;-47
2023/03/22 11:38:59;;;;;;;3.60;1.20;;;11.00;99.90;;;;;;5081112;28;20413;-46
2023/03/22 11:41:30;;;;;;;8.00;1.27;;;11.00;99.90;;;;;;5067352;28;20398;-41
2023/03/22 11:44:01;;;;;;;7.32;1.45;;;11.10;99.90;;;;;;5076525;28;20052;-45
2023/03/22 11:46:28;;;;;;;4.07;1.30;;;11.10;99.90;;;;;;5075157;28;20110;-46
2023/03/22 11:48:59;;;;;;;4.47;1.50;;;11.10;99.90;;;;;;5078054;28;20511;-47
2023/03/22 11:51:29;;;;;;;4.95;1.33;;;11.10;99.90;;;;;;5073976;28;20118;-46
2023/03/22 11:54:08;;;;;;;5.60;1.25;;;11.10;99.90;;;;;;5069400;28;20109;-46
2023/03/22 11:56:40;;;;;;;5.70;1.40;;;11.10;99.90;;;;;;5074294;28;20325;-44
2023/03/22 11:59:15;;;;;;;4.63;1.00;;;11.10;99.90;;;;;;5068976;28;20056;-45
2023/03/22 12:01:48;;;;;;;6.10;1.30;;;11.10;99.90;;;;;;5075317;28;20117;-48
2023/03/22 12:04:19;;;;;;;3.65;1.00;;;11.10;99.90;;;;;;5052651;28;20645;-46
2023/03/22 12:06:45;;;;;;;5.18;1.10;;;11.10;99.90;;;;;;5076598;28;20137;-45
2023/03/22 12:09:23;;;;;;;6.53;1.17;;;11.10;99.90;;;;;;5072538;28;20052;-46
2023/03/22 12:11:53;;;;;;;4.22;1.10;;;11.10;99.90;;;;;;5079408;28;20047;-47
2023/03/22 12:14:25;;;;;;;4.82;1.33;;;11.10;99.90;;;;;;5078730;28;20179;-45
2023/03/22 12:17:20;;;;;;;3.83;0.95;;;11.10;99.90;;;;;;5078319;28;20056;-48
2023/03/22 12:19:51;;;;;;;4.93;1.00;;;11.10;99.90;;;;;;5045528;28;20048;-44
2023/03/22 12:22:23;;;;;;;3.77;1.10;;;11.00;99.90;;;;;;5075821;28;21269;-46
2023/03/22 12:24:49;;;;;;;4.33;1.23;;;11.10;99.90;;;;;;5079926;28;20176;-45
2023/03/22 12:27:30;;;;;;;4.53;1.10;;;11.00;99.90;;;;;;5081173;28;20044;-43
2023/03/22 12:30:01;;;;;;;5.88;0.85;;;11.00;99.90;;;;;;5078082;28;20052;-46
2023/03/22 12:32:31;;;;;;;6.55;1.30;;;11.00;99.90;;;;;;5079715;28;20056;-47
2023/03/22 12:34:58;;;;;;;4.82;1.42;;;11.00;99.90;;;;;;5077921;28;20489;-48
2023/03/22 12:37:28;;;;;;;4.90;1.10;;;11.00;99.90;;;;;;5056356;28;20044;-45
2023/03/22 12:40:04;;;;;;;5.53;1.50;;;11.00;99.90;;;;;;5077401;28;20500;-47
2023/03/22 12:42:51;;;;;;;3.80;1.20;;;11.00;99.90;;;;;;5074379;28;20044;-48
2023/03/22 12:45:22;;;;;;;4.80;1.40;;;11.00;99.90;;;;;;5070527;28;20059;-47
2023/03/22 12:47:54;;;;;;;4.28;1.50;;;10.90;99.90;;;;;;5072477;28;20041;-45
2023/03/22 12:50:36;;;;;;;7.22;1.35;;;10.80;99.90;;;;;;5081910;28;20052;-47
2023/03/22 12:53:03;;;;;;;3.95;1.60;;;10.80;99.90;;;;;;5078959;28;20329;-48
2023/03/22 12:55:37;;;;;;;4.70;1.60;;;10.80;99.90;;;;;;5081574;28;20044;-48
2023/03/22 12:58:12;;;;;;;4.03;1.35;;;10.80;99.90;;;;;;5078184;28;20050;-46
2023/03/22 13:00:46;;;;;;;4.35;1.60;;;10.80;99.90;;;;;;5077258;28;20048;-45
2023/03/22 13:03:15;;;;;;;4.35;1.40;;;10.80;99.90;;;;;;5065690;28;20124;-44
2023/03/22 13:05:40;;;;;;;4.60;1.35;;;10.70;99.90;;;;;;5078193;28;20454;-46